Погода Коронеона 2 недели

Гуанахуато, Мексика

03 - 16 марта
  • 03марта
    Сегодня
    +10°
    +26°
    Ясно и безоблачно
    ВремяПогодаТемператураВлажностьДавлениеВетер, м/сВероятность осадков
    00:00Ясно и безоблачно+15°C40 %582 мм1.9 м/с2 %
    03:00Ясно и безоблачно+13°C51 %581 мм1.8 м/с2 %
    06:00Ясно и безоблачно+11°C58 %580 мм1.5 м/с2 %
    09:00Ясно и безоблачно+15°C39 %583 мм2.1 м/с2 %
    12:00Ясно и безоблачно+21°C24 %585 мм4.0 м/с2 %
    15:00Ясно и безоблачно+25°C15 %584 мм4.9 м/с2 %
    18:00Ясно и безоблачно+23°C24 %583 мм4.2 м/с2 %
    21:00Ясно и безоблачно+16°C40 %582 мм2.6 м/с2 %
  • 04марта
    Понедельник
    +10°
    +26°
    Небольшая облачность
    ВремяПогодаТемператураВлажностьДавлениеВетер, м/сВероятность осадков
    00:00Ясно и безоблачно+15°C44 %581 мм2.1 м/с2 %
    03:00Ясно и безоблачно+13°C50 %579 мм1.5 м/с2 %
    06:00Ясно и безоблачно+12°C51 %579 мм1.3 м/с2 %
    09:00Ясно и безоблачно+14°C39 %582 мм1.7 м/с2 %
    12:00Практически безоблачно+21°C23 %584 мм3.8 м/с2 %
    15:00Небольшая облачность+25°C20 %583 мм5.0 м/с2 %
    18:00Ясно и безоблачно+22°C23 %582 мм5.5 м/с2 %
    21:00Ясно и безоблачно+17°C34 %581 мм3.1 м/с2 %
  • 05марта
    Вторник
    +13°
    +26°
    Ясно и безоблачно
    ВремяПогодаТемператураВлажностьДавлениеВетер, м/сВероятность осадков
    00:00Практически безоблачно+14°C41 %581 мм1.7 м/с2 %
    03:00Практически безоблачно+14°C41 %580 мм1.2 м/с2 %
    06:00Небольшая облачность+12°C48 %579 мм1.4 м/с2 %
    09:00Практически безоблачно+15°C33 %581 мм1.9 м/с2 %
    12:00Облачно с прояснениями+22°C15 %583 мм3.5 м/с2 %
    15:00Ясно и безоблачно+25°C11 %582 мм4.5 м/с2 %
    18:00Ясно и безоблачно+25°C14 %582 мм3.7 м/с2 %
    21:00Ясно и безоблачно+17°C25 %581 мм1.7 м/с2 %
  • 06марта
    Среда
    +12°
    +27°
    Ясно и безоблачно
    ВремяПогодаТемператураВлажностьДавлениеВетер, м/сВероятность осадков
    00:00Небольшая облачность+16°C32 %580 мм1.6 м/с2 %
    03:00Практически безоблачно+17°C34 %580 мм0.4 м/с2 %
    06:00Ясно и безоблачно+16°C36 %580 мм0.6 м/с2 %
    09:00Ясно и безоблачно+16°C29 %582 мм1.3 м/с2 %
    12:00Ясно и безоблачно+22°C19 %584 мм2.7 м/с2 %
    15:00Ясно и безоблачно+26°C14 %583 мм3.2 м/с2 %
    18:00Ясно и безоблачно+25°C17 %582 мм4.1 м/с2 %
    21:00Ясно и безоблачно+17°C29 %581 мм2.7 м/с2 %
  • 07марта
    Четверг
    +12°
    +27°
    Ясно и безоблачно
    ВремяПогодаТемператураВлажностьДавлениеВетер, м/сВероятность осадков
    00:00Ясно и безоблачно+16°C29 %581 мм2.3 м/с2 %
    03:00Ясно и безоблачно+14°C30 %579 мм2.4 м/с2 %
    06:00Ясно и безоблачно+12°C26 %579 мм1.9 м/с2 %
    09:00Ясно и безоблачно+16°C16 %581 мм2.9 м/с2 %
    12:00Небольшая облачность+22°C10 %584 мм4.3 м/с2 %
    15:00Ясно и безоблачно+26°C8 %583 мм5.7 м/с2 %
    18:00Ясно и безоблачно+23°C12 %582 мм6.3 м/с2 %
    21:00Практически безоблачно+17°C22 %581 мм4.2 м/с2 %
Мы используем cookies
Соглашаюсь